KOZR/OZR METAR and TAF weather

Enter ICAO airport designator
Station Type Date Time Source
KOZR METAR 2018/12/11 20:56 UTC NOAA

KOZR 112056Z AUTO 25003KT 10SM CLR 13/00 A3030 RMK AO2 SLP264 T01251004 56010


Station Type Date Time Source
KOZR Decoded METAR 2018/12/11 20:56 UTC NOAA

Cairns Army Air Field / Ozark, AL, United States (KOZR) 31-17N 085-43W
Dec 11, 2018 - 03:56 PM EST / 2018.12.11 2056 UTC
Wind: from the WSW (250 degrees) at 3 MPH (3 KT):0
Visibility: 10 mile(s):0
Sky conditions: clear
Temperature: 54.5 F (12.5 C)
Dew Point: 31.3 F (-0.4 C)
Relative Humidity: 40%
Pressure (altimeter): 30.3 in. Hg (1026 hPa)
Pressure tendency: 0.03 inches (1.0 hPa) lower than three hours ago
ob: KOZR 112056Z AUTO 25003KT 10SM CLR 13/00 A3030 RMK AO2 SLP264 T01251004 56010
cycle: 21

Station Type Date Time Source
KOZR TAF 2018/12/11 16:04 UTC NOAA

TAF KOZR 111600Z 1116/1222 33009KT 9999 BKN015 QNH3032INS
BECMG 1119/1120 VRB06KT 9999 SKC QNH3034INS
BECMG 1221/1222 VRB06KT 9999 SCT010 QNH3025INS TX12/1120Z TNM02/1211Z


Example: see airport list